Flight Track Log - Related Links

Times and Time Zones

All times are in EDT time to prevent confusion due to time zone crossing. See the CES5387 flight status page for this flight to view local times or setup timezone preferences in your user account.

Time Position Orientation Groundspeed Altitude Reporting Facility
EDT Latitude Longitude Course Direction KTS MPH feet Rate Location/Type
Sun 11:35:00 AM 31.1353 116.5218 226° Southwest  Level Estimated
Sun 11:36:00 AM 31.0706 116.4447 226° Southwest  Level Estimated
Sun 11:37:00 AM 31.0058 116.3677 226° Southwest  Level Estimated
Sun 11:38:00 AM 30.9410 116.2908 225° Southwest  Level Estimated
Sun 11:39:00 AM 30.8761 116.2141 225° Southwest  Level Estimated
Sun 11:40:00 AM 30.8112 116.1374 225° Southwest  Level Estimated
Sun 11:41:00 AM 30.7463 116.0609 225° Southwest  Level Estimated
Sun 11:42:00 AM 30.6813 115.9844 225° Southwest  Level Estimated
Sun 11:43:00 AM 30.6162 115.9081 225° Southwest  Level Estimated
Sun 11:44:00 AM 30.5511 115.8318 225° Southwest  Level Estimated
Sun 11:45:00 AM 30.4860 115.7557 225° Southwest  Level Estimated
Sun 11:46:00 AM 30.4208 115.6796 225° Southwest  Level Estimated
Sun 11:47:00 AM 30.3556 115.6037 225° Southwest  Level Estimated
Sun 11:48:00 AM 30.2903 115.5278 225° Southwest  Level Estimated
Sun 11:49:00 AM 30.2250 115.4521 225° Southwest  Level Estimated
Sun 11:50:00 AM 30.1597 115.3764 225° Southwest  Level Estimated
Sun 11:51:00 AM 30.0943 115.3009 225° Southwest  Level Estimated
Sun 11:52:00 AM 30.0289 115.2254 225° Southwest  Level Estimated
Sun 11:53:00 AM 29.9634 115.1501 225° Southwest  Level Estimated
Sun 11:54:00 AM 29.8979 115.0749 225° Southwest  Level Estimated
Sun 11:55:00 AM 29.8323 114.9997 225° Southwest  Level Estimated
Sun 11:56:00 AM 29.7667 114.9247 225° Southwest  Level Estimated
Sun 11:57:00 AM 29.7010 114.8497 225° Southwest  Level Estimated
Sun 11:58:00 AM 29.6353 114.7749 225° Southwest  Level Estimated
Sun 11:59:00 AM 29.5696 114.7001 225° Southwest  Level Estimated
Sun 12:00:00 PM 29.5038 114.6255 225° Southwest  Level Estimated
Sun 12:01:00 PM 29.4380 114.5509 225° Southwest  Level Estimated
Sun 12:02:00 PM 29.3722 114.4764 225° Southwest  Level Estimated
Sun 12:03:00 PM 29.3062 114.4021 225° Southwest  Level Estimated
Sun 12:04:00 PM 29.2403 114.3278 225° Southwest  Level Estimated
Sun 12:05:00 PM 29.1743 114.2536 224° Southwest  Level Estimated
Sun 12:06:00 PM 29.1083 114.1796 224° Southwest  Level Estimated
Sun 12:07:00 PM 29.0422 114.1056 224° Southwest  Level Estimated
Sun 12:08:00 PM 28.9761 114.0317 224° Southwest  Level Estimated
Sun 12:09:00 PM 28.9100 113.9579 224° Southwest  Level Estimated
Sun 12:10:00 PM 28.8438 113.8842 224° Southwest  Level Estimated
Sun 12:11:00 PM 28.7776 113.8106 224° Southwest  Level Estimated
Sun 12:12:00 PM 28.7113 113.7371 224° Southwest  Level Estimated
Sun 12:13:00 PM 28.6450 113.6637 224° Southwest  Level Estimated
Sun 12:14:00 PM 28.5786 113.5903 224° Southwest  Level Estimated
Sun 12:15:00 PM 28.5123 113.5171 224° Southwest  Level Estimated
Sun 12:16:00 PM 28.4459 113.4440 224° Southwest  Level Estimated
Sun 12:17:00 PM 28.3794 113.3709 224° Southwest  Level Estimated
Sun 12:18:00 PM 28.3129 113.2980 224° Southwest  Level Estimated
Sun 12:19:00 PM 28.2463 113.2251 224° Southwest  Level Estimated
Sun 12:20:00 PM 28.1798 113.1523 224° Southwest  Level Estimated
Sun 12:21:00 PM 28.1131 113.0796 224° Southwest  Level Estimated
Sun 12:22:00 PM 28.0465 113.0070 224° Southwest  Level Estimated
Sun 12:23:00 PM 27.9798 112.9345 224° Southwest  Level Estimated
Sun 12:24:00 PM 27.9131 112.8621 224° Southwest  Level Estimated
Sun 12:25:00 PM 27.8463 112.7897 224° Southwest  Level Estimated
Sun 12:26:00 PM 27.7795 112.7175 224° Southwest  Level Estimated
Sun 12:27:00 PM 27.7127 112.6454 224° Southwest  Level Estimated
Sun 12:28:00 PM 27.6458 112.5733 224° Southwest  Level Estimated
Sun 12:29:00 PM 27.5788 112.5013 224° Southwest  Level Estimated
Sun 12:30:00 PM 27.5119 112.4295 224° Southwest  Level Estimated
Sun 12:31:00 PM 27.4449 112.3577 224° Southwest  Level Estimated
Sun 12:32:00 PM 27.3779 112.2859 224° Southwest  Level Estimated
Sun 12:33:00 PM 27.3108 112.2143 224° Southwest  Level Estimated
Sun 12:34:00 PM 27.2437 112.1428 223° Southwest  Level Estimated
Sun 12:35:00 PM 27.1766 112.0713 223° Southwest  Level Estimated
Sun 12:36:00 PM 27.1094 112.0000 223° Southwest  Level Estimated
Sun 12:37:00 PM 27.0422 111.9287 223° Southwest  Level Estimated
Sun 12:38:00 PM 26.9749 111.8575 223° Southwest  Level Estimated
Sun 12:39:00 PM 26.9076 111.7864 223° Southwest  Level Estimated
Sun 12:40:00 PM 26.8403 111.7154 223° Southwest  Level Estimated
Sun 12:41:00 PM 26.7730 111.6444 223° Southwest  Level Estimated
Sun 12:42:00 PM 26.7056 111.5736 223° Southwest  Level Estimated
Sun 12:43:00 PM 26.6382 111.5028 223° Southwest  Level Estimated
Sun 12:44:00 PM 26.5707 111.4321 223° Southwest  Level Estimated
Sun 12:45:00 PM 26.5032 111.3615 223° Southwest  Level Estimated
Sun 12:46:00 PM 26.4357 111.2910 223° Southwest  Level Estimated
Sun 12:47:00 PM 26.3681 111.2206 223° Southwest  Level Estimated
Sun 12:48:00 PM 26.3005 111.1502 223° Southwest  Level Estimated
Sun 12:49:00 PM 26.2329 111.0799 223° Southwest  Level Estimated
Sun 12:50:00 PM 26.1652 111.0097 223° Southwest  Level Estimated
Sun 12:51:00 PM 26.0975 110.9396 223° Southwest  Level Estimated
Sun 12:52:00 PM 26.0298 110.8696 223° Southwest  Level Estimated
Sun 12:53:00 PM 25.9620 110.7996 223° Southwest  Level Estimated
Sun 12:54:00 PM 25.8866 110.7219 223° Southwest  Level Estimated
Sun 12:55:00 PM 25.8111 110.6443 223° Southwest  Level Estimated
Sun 12:56:00 PM 25.7356 110.5668 223° Southwest  Level Estimated
Sun 12:57:00 PM 25.6601 110.4894 223° Southwest  Level Estimated
Sun 12:58:00 PM 25.5845 110.4120 223° Southwest  Level Estimated
Sun 12:59:00 PM 25.5089 110.3348 223° Southwest  Level Estimated
Sun 01:00:00 PM 25.4332 110.2577 223° Southwest  Level Estimated
Sun 01:01:00 PM 25.3575 110.1807 223° Southwest  Level Estimated
Sun 01:02:00 PM 25.2817 110.1037 223° Southwest  Level Estimated
Sun 01:03:00 PM 25.2181 110.0392 223° Southwest  Level Estimated
Sun 01:04:00 PM 25.2181 110.0392 214° Southwest  Level Estimated
Sun 01:05:00 PM 25.2181 110.0392 214° Southwest  Level Estimated
Sun 01:06:00 PM 25.2181 110.0392 214° Southwest  Level Estimated
Sun 01:07:00 PM 25.2181 110.0392 214° Southwest  Level Estimated
Sun 01:08:00 PM 25.2181 110.0392 214° Southwest  Level Estimated

Login

Don't have an account? Register now (free) for customized features, flight alerts, and more!